KCNK/CNK METAR and TAF weather

Enter ICAO airport designator
Station Type Date Time Source
KCNK METAR 2019/12/07 09:55 UTC NOAA

KCNK 070955Z AUTO 19011KT 10SM CLR M01/M06 A3026 RMK AO2 SLP255 T10061061


Station Type Date Time Source
KCNK Decoded METAR 2019/12/07 09:55 UTC NOAA

Concordia, Blosser Municipal Airport, KS, United States (KCNK) 39-33-05N 097-39-02W 447M
Dec 07, 2019 - 04:55 AM EST / 2019.12.07 0955 UTC
Wind: from the S (190 degrees) at 13 MPH (11 KT):0
Visibility: 10 mile(s):0
Sky conditions: clear
Temperature: 30.9 F (-0.6 C)
Windchill: 21 F (-6 C):1
Dew Point: 21.0 F (-6.1 C)
Relative Humidity: 66%
Pressure (altimeter): 30.26 in. Hg (1024 hPa)
ob: KCNK 070955Z AUTO 19011KT 10SM CLR M01/M06 A3026 RMK AO2 SLP255 T10061061
cycle: 10

Station Type Date Time Source
KCNK TAF UTC NOAA

Error!

Example: see airport list